Time;durP1;ratioP1;P1;durP2;ratioP2;P2;SDS_P1;SDS_P2;PMS_P1;PMS_P2;Temp;Humidity;BMP_temperature;BMP_pressure;BME280_temperature;BME280_humidity;BME280_pressure;Samples;Min_cycle;Max_cycle;Signal;HPM_P1;HPM_P2
2021/06/16 00:00:40;;;;;;;11.98;7.53;;;19.90;99.90;;;;;;5061605;28;20032;-76
2021/06/16 00:03:06;;;;;;;23.00;8.63;;;19.90;99.90;;;;;;5061934;28;20086;-76
2021/06/16 00:05:34;;;;;;;10.23;7.68;;;19.90;99.90;;;;;;5061804;28;20040;-76
2021/06/16 00:08:02;;;;;;;8.80;7.22;;;19.80;99.90;;;;;;5066485;28;20037;-75
2021/06/16 00:10:29;;;;;;;13.10;8.32;;;19.80;99.90;;;;;;5062440;28;20477;-75
2021/06/16 00:12:55;;;;;;;12.98;8.50;;;19.80;99.90;;;;;;5041420;28;20030;-76
2021/06/16 00:15:37;;;;;;;9.00;7.80;;;19.80;99.90;;;;;;5066626;28;20033;-76
2021/06/16 00:18:05;;;;;;;21.00;10.02;;;19.70;99.90;;;;;;5058202;28;20028;-76
2021/06/16 00:20:31;;;;;;;16.80;8.93;;;19.70;99.90;;;;;;5066010;28;20029;-75
2021/06/16 00:22:59;;;;;;;15.80;8.48;;;19.70;99.90;;;;;;5060028;28;20043;-75
2021/06/16 00:25:27;;;;;;;17.75;8.70;;;19.60;99.90;;;;;;5061364;28;20102;-76
2021/06/16 00:27:57;;;;;;;9.18;7.75;;;19.60;99.90;;;;;;5048203;28;20349;-76
2021/06/16 00:30:23;;;;;;;8.45;7.65;;;19.60;99.90;;;;;;5049600;28;20496;-76
2021/06/16 00:32:53;;;;;;;12.65;8.00;;;19.50;99.90;;;;;;5060718;28;20036;-76
2021/06/16 00:35:21;;;;;;;13.82;7.88;;;19.50;99.90;;;;;;5064609;28;20021;-75
2021/06/16 00:37:48;;;;;;;11.77;8.77;;;19.50;99.90;;;;;;5065045;28;20401;-76
2021/06/16 00:40:19;;;;;;;12.20;8.50;;;19.50;99.90;;;;;;5061402;28;20110;-76
2021/06/16 00:42:45;;;;;;;10.73;8.67;;;19.40;99.90;;;;;;5059154;28;20036;-75
2021/06/16 00:45:11;;;;;;;12.30;8.20;;;19.40;99.90;;;;;;5059931;28;20308;-76
2021/06/16 00:47:36;;;;;;;12.95;8.32;;;19.40;99.90;;;;;;5059388;28;20029;-76
2021/06/16 00:50:03;;;;;;;18.80;9.07;;;19.30;99.90;;;;;;5060957;28;20587;-76
2021/06/16 00:52:29;;;;;;;12.20;8.27;;;19.30;99.90;;;;;;5061335;28;20025;-75
2021/06/16 00:54:54;;;;;;;12.25;8.70;;;19.30;99.90;;;;;;5060122;28;20036;-76
2021/06/16 00:57:22;;;;;;;11.52;8.70;;;19.30;99.90;;;;;;5062366;28;20902;-76
2021/06/16 01:00:08;;;;;;;10.55;7.88;;;19.30;99.90;;;;;;5057852;28;20037;-76
2021/06/16 01:02:41;;;;;;;13.60;9.02;;;19.20;99.90;;;;;;5060658;28;20032;-76
2021/06/16 01:05:10;;;;;;;11.30;8.70;;;19.20;99.90;;;;;;5060549;28;20039;-76
2021/06/16 01:07:42;;;;;;;11.00;8.57;;;19.20;99.90;;;;;;5059275;28;20035;-76
2021/06/16 01:10:14;;;;;;;12.32;8.15;;;19.10;99.90;;;;;;5059178;28;20473;-76
2021/06/16 01:13:10;;;;;;;13.70;9.45;;;19.20;99.90;;;;;;5061243;28;20035;-76
2021/06/16 01:16:17;;;;;;;20.80;9.45;;;19.20;99.90;;;;;;5061634;28;20103;-76
2021/06/16 01:18:54;;;;;;;19.48;9.13;;;19.10;99.90;;;;;;5057436;28;20037;-76
2021/06/16 01:21:20;;;;;;;11.95;8.68;;;19.10;99.90;;;;;;5043128;28;20037;-76
2021/06/16 01:24:06;;;;;;;17.77;9.63;;;19.00;99.90;;;;;;5027927;28;20051;-76
2021/06/16 01:26:40;;;;;;;9.73;8.48;;;19.00;99.90;;;;;;5080233;28;20032;-76
2021/06/16 01:29:17;;;;;;;12.00;8.93;;;19.00;99.90;;;;;;5058498;28;20020;-76
2021/06/16 01:31:43;;;;;;;14.68;9.10;;;19.00;99.90;;;;;;5063986;28;20047;-75
2021/06/16 01:34:09;;;;;;;14.45;8.75;;;19.00;99.90;;;;;;5058036;28;20044;-76
2021/06/16 01:36:35;;;;;;;13.77;9.02;;;18.90;99.90;;;;;;5057805;28;20026;-76
2021/06/16 01:39:01;;;;;;;11.45;9.02;;;19.00;99.90;;;;;;5062526;28;20111;-76
2021/06/16 01:41:27;;;;;;;14.15;9.45;;;19.00;99.90;;;;;;5042325;28;20111;-76
2021/06/16 01:43:54;;;;;;;12.85;9.38;;;18.90;99.90;;;;;;5045725;28;20037;-76
2021/06/16 01:46:22;;;;;;;12.55;9.13;;;18.90;99.90;;;;;;5043248;28;20036;-76
2021/06/16 01:48:48;;;;;;;10.45;8.50;;;18.90;99.90;;;;;;5079759;28;20087;-76
2021/06/16 01:51:18;;;;;;;11.70;9.30;;;18.90;99.90;;;;;;5062715;28;20025;-76
2021/06/16 01:53:47;;;;;;;9.75;8.40;;;18.80;99.90;;;;;;5059586;28;20025;-76
2021/06/16 01:56:15;;;;;;;11.27;9.00;;;18.80;99.90;;;;;;5081300;28;20028;-76
2021/06/16 01:58:43;;;;;;;12.68;9.00;;;18.80;99.90;;;;;;5063025;28;20036;-76
2021/06/16 02:01:11;;;;;;;12.15;9.35;;;18.80;99.90;;;;;;5034652;28;20037;-76
2021/06/16 02:03:37;;;;;;;14.63;9.40;;;18.80;99.90;;;;;;5074229;28;20071;-76
2021/06/16 02:06:02;;;;;;;12.43;9.95;;;18.70;99.90;;;;;;5037359;28;20120;-76
2021/06/16 02:08:29;;;;;;;19.95;10.10;;;18.70;99.90;;;;;;5055098;28;20044;-76
2021/06/16 02:10:55;;;;;;;12.80;9.48;;;18.70;99.90;;;;;;5057001;28;20021;-76
2021/06/16 02:13:39;;;;;;;10.77;9.68;;;18.70;99.90;;;;;;5055094;28;20021;-75
2021/06/16 02:16:13;;;;;;;14.40;9.55;;;18.70;99.90;;;;;;5058176;28;20033;-75
2021/06/16 02:18:49;;;;;;;25.30;11.02;;;18.60;99.90;;;;;;5058769;28;20037;-76
2021/06/16 02:21:14;;;;;;;12.48;9.70;;;18.60;99.90;;;;;;5062565;28;20033;-76
2021/06/16 02:23:46;;;;;;;15.00;10.05;;;18.60;99.90;;;;;;5056816;28;20049;-75
2021/06/16 02:26:12;;;;;;;;;;;18.60;99.90;;;;;;5058048;28;20366;-75
2021/06/16 02:28:38;;;;;;;17.95;10.18;;;18.60;99.90;;;;;;5055171;28;19912;-75
2021/06/16 02:31:06;;;;;;;11.13;9.95;;;18.50;99.90;;;;;;5055094;28;20033;-76
2021/06/16 02:33:31;;;;;;;13.60;9.65;;;18.50;99.90;;;;;;5060821;28;20024;-76
2021/06/16 02:35:57;;;;;;;11.27;8.77;;;18.50;99.90;;;;;;5056237;28;20461;-75
2021/06/16 02:38:24;;;;;;;15.02;10.60;;;18.50;99.90;;;;;;5054449;28;20186;-76
2021/06/16 02:40:51;;;;;;;14.13;9.68;;;18.40;99.90;;;;;;5051309;28;20036;-76
2021/06/16 02:43:18;;;;;;;12.38;9.82;;;18.40;99.90;;;;;;5053622;28;20056;-76
2021/06/16 02:45:43;;;;;;;15.40;10.25;;;18.40;99.90;;;;;;5054151;28;20047;-76
2021/06/16 02:48:12;;;;;;;11.45;9.13;;;18.40;99.90;;;;;;5037743;28;20025;-76
2021/06/16 02:50:38;;;;;;;14.70;10.05;;;18.40;99.90;;;;;;5056765;28;20082;-76
2021/06/16 02:53:12;;;;;;;13.55;10.13;;;18.40;99.90;;;;;;5053192;28;20428;-76
2021/06/16 02:55:38;;;;;;;24.70;11.05;;;18.40;99.90;;;;;;5060415;28;20058;-76
2021/06/16 02:58:03;;;;;;;13.07;9.93;;;18.40;99.90;;;;;;5080545;28;20037;-76
2021/06/16 03:00:32;;;;;;;13.73;9.93;;;18.40;99.90;;;;;;5058456;28;20043;-76
2021/06/16 03:03:00;;;;;;;23.42;11.10;;;18.30;99.90;;;;;;5041696;28;20090;-76
2021/06/16 03:05:27;;;;;;;22.95;11.02;;;18.40;99.90;;;;;;5056696;28;20033;-76
2021/06/16 03:07:57;;;;;;;13.80;11.50;;;18.30;99.90;;;;;;5057729;28;20033;-76
2021/06/16 03:10:26;;;;;;;14.00;10.07;;;18.30;99.90;;;;;;5059935;28;20025;-76
2021/06/16 03:12:52;;;;;;;13.80;10.98;;;18.30;99.90;;;;;;5074987;28;20040;-76
2021/06/16 03:15:18;;;;;;;13.30;10.05;;;18.30;99.90;;;;;;5042005;28;20028;-76
2021/06/16 03:17:47;;;;;;;12.50;10.00;;;18.30;99.90;;;;;;5044746;28;20043;-77
2021/06/16 03:20:14;;;;;;;17.17;10.25;;;18.30;99.90;;;;;;5044319;28;20043;-77
2021/06/16 03:22:40;;;;;;;17.63;10.73;;;18.30;99.90;;;;;;5060206;28;20033;-76
2021/06/16 03:25:06;;;;;;;12.82;10.15;;;18.30;99.90;;;;;;5055950;28;20477;-76
2021/06/16 03:27:32;;;;;;;12.68;10.70;;;18.30;99.90;;;;;;5055569;28;20145;-76
2021/06/16 03:29:57;;;;;;;11.50;10.30;;;18.30;99.90;;;;;;5058219;28;20710;-77
2021/06/16 03:32:23;;;;;;;11.88;10.48;;;18.30;99.90;;;;;;5053806;28;20032;-76
2021/06/16 03:34:49;;;;;;;14.50;10.02;;;18.30;99.90;;;;;;5074351;28;20060;-77
2021/06/16 03:37:14;;;;;;;16.17;10.60;;;18.30;99.90;;;;;;5056946;28;20028;-76
2021/06/16 03:39:45;;;;;;;15.73;11.25;;;18.30;99.90;;;;;;5044250;28;20056;-76
2021/06/16 03:42:10;;;;;;;17.83;10.85;;;18.30;99.90;;;;;;5060578;28;20048;-77
2021/06/16 03:44:38;;;;;;;14.55;10.40;;;18.30;99.90;;;;;;5041601;28;20032;-77
2021/06/16 03:47:04;;;;;;;17.58;11.23;;;18.30;99.90;;;;;;5054856;28;20142;-76
2021/06/16 03:49:30;;;;;;;12.80;10.40;;;18.30;99.90;;;;;;5053495;28;20104;-77
2021/06/16 03:51:57;;;;;;;17.60;11.00;;;18.30;99.90;;;;;;5059851;28;20040;-76
2021/06/16 03:54:25;;;;;;;14.80;10.98;;;18.30;99.90;;;;;;5058913;28;20036;-77
2021/06/16 03:56:53;;;;;;;13.90;10.32;;;18.30;99.90;;;;;;5056787;28;20342;-77
2021/06/16 03:59:19;;;;;;;16.27;10.45;;;18.30;99.90;;;;;;5056620;28;20033;-77
2021/06/16 04:01:45;;;;;;;15.00;11.02;;;18.30;99.90;;;;;;5056309;28;20409;-76
2021/06/16 04:04:11;;;;;;;11.75;10.25;;;18.30;99.90;;;;;;5072963;28;20458;-76
2021/06/16 04:06:42;;;;;;;13.23;10.10;;;18.30;99.90;;;;;;5054666;28;20025;-77
2021/06/16 04:09:10;;;;;;;15.80;10.43;;;18.30;99.90;;;;;;5057650;28;20024;-76
2021/06/16 04:11:36;;;;;;;15.05;10.10;;;18.30;99.90;;;;;;5062004;28;20024;-76
2021/06/16 04:14:01;;;;;;;11.45;10.13;;;18.30;99.90;;;;;;5077006;28;20025;-77
2021/06/16 04:16:29;;;;;;;12.68;10.13;;;18.40;99.90;;;;;;5060359;28;20104;-76
2021/06/16 04:18:55;;;;;;;13.70;11.30;;;18.30;99.90;;;;;;5059659;28;20957;-77
2021/06/16 04:21:21;;;;;;;15.55;10.90;;;18.40;99.90;;;;;;5059590;28;20104;-77
2021/06/16 04:23:48;;;;;;;14.45;10.63;;;18.40;99.90;;;;;;5058636;28;20406;-77
2021/06/16 04:26:16;;;;;;;17.23;10.77;;;18.40;99.90;;;;;;5062268;28;20055;-77
2021/06/16 04:28:42;;;;;;;22.65;10.95;;;18.50;99.90;;;;;;5060943;28;20393;-77
2021/06/16 04:31:10;;;;;;;21.48;11.95;;;18.50;99.90;;;;;;5057075;28;20037;-77
2021/06/16 04:33:36;;;;;;;14.00;10.40;;;18.60;99.90;;;;;;5059238;28;20036;-77
2021/06/16 04:36:02;;;;;;;13.13;10.60;;;18.60;99.90;;;;;;5057022;28;20043;-76
2021/06/16 04:38:28;;;;;;;16.77;11.10;;;18.60;99.90;;;;;;5059490;28;20108;-77
2021/06/16 04:40:56;;;;;;;15.35;10.57;;;18.60;99.90;;;;;;5059590;28;20119;-77
2021/06/16 04:43:24;;;;;;;13.93;11.05;;;18.60;99.90;;;;;;5057086;28;20124;-77
2021/06/16 04:45:50;;;;;;;11.50;10.30;;;18.70;99.90;;;;;;5056219;28;20939;-77
2021/06/16 04:48:15;;;;;;;12.98;10.65;;;18.70;99.90;;;;;;5053751;28;20033;-77
2021/06/16 04:50:41;;;;;;;11.27;9.60;;;18.80;99.90;;;;;;5057674;28;20043;-77
2021/06/16 04:53:07;;;;;;;13.82;10.48;;;18.80;99.90;;;;;;5056598;28;20028;-77
2021/06/16 04:55:35;;;;;;;13.43;11.18;;;18.90;99.90;;;;;;5057409;28;21840;-77
2021/06/16 04:58:01;;;;;;;13.65;11.18;;;18.90;99.90;;;;;;5056163;28;20036;-77
2021/06/16 05:00:26;;;;;;;12.57;10.68;;;19.00;99.90;;;;;;5058434;28;20154;-79
2021/06/16 05:02:53;;;;;;;12.23;10.90;;;19.00;99.90;;;;;;5057441;28;20116;-78
2021/06/16 05:05:21;;;;;;;12.63;10.82;;;19.00;99.90;;;;;;5056596;28;20776;-78
2021/06/16 05:07:47;;;;;;;12.48;10.82;;;19.10;99.90;;;;;;5057697;28;20103;-78
2021/06/16 05:10:13;;;;;;;13.23;10.32;;;19.20;99.90;;;;;;5057572;28;20033;-78
2021/06/16 05:12:43;;;;;;;11.20;9.93;;;19.20;99.90;;;;;;5055534;28;20143;-77
2021/06/16 05:15:10;;;;;;;15.02;10.73;;;19.30;99.90;;;;;;5052869;28;20056;-76
2021/06/16 05:17:39;;;;;;;15.05;10.27;;;19.30;99.90;;;;;;5056343;28;20032;-77
2021/06/16 05:20:06;;;;;;;13.32;11.07;;;19.40;99.90;;;;;;5079008;28;20028;-77
2021/06/16 05:22:34;;;;;;;28.60;13.35;;;19.40;99.90;;;;;;5061425;28;20035;-77
2021/06/16 05:25:02;;;;;;;13.75;10.88;;;19.50;99.90;;;;;;5056440;28;20055;-77
2021/06/16 05:27:28;;;;;;;17.13;12.13;;;19.50;99.90;;;;;;5062901;28;20023;-77
2021/06/16 05:29:56;;;;;;;15.07;11.30;;;19.50;99.90;;;;;;5071865;28;20080;-77
2021/06/16 05:32:24;;;;;;;16.40;10.40;;;19.60;99.90;;;;;;5056841;28;20031;-78
2021/06/16 05:34:51;;;;;;;14.55;11.15;;;19.70;99.90;;;;;;5056258;28;20032;-77
2021/06/16 05:37:19;;;;;;;14.13;10.85;;;19.70;99.90;;;;;;5056298;28;20056;-78
2021/06/16 05:39:45;;;;;;;14.73;11.27;;;19.80;99.90;;;;;;5058533;28;20024;-79
2021/06/16 05:42:10;;;;;;;14.73;11.90;;;19.80;99.90;;;;;;5059052;28;20044;-78
2021/06/16 05:44:36;;;;;;;14.15;11.85;;;19.80;99.90;;;;;;5059112;28;20025;-79
2021/06/16 05:47:02;;;;;;;15.02;11.35;;;19.90;99.90;;;;;;5072175;28;20021;-78
2021/06/16 05:49:31;;;;;;;14.00;11.00;;;19.90;99.90;;;;;;5057082;28;20067;-73
2021/06/16 05:51:57;;;;;;;18.77;11.43;;;20.00;99.90;;;;;;5045801;28;20036;-73
2021/06/16 05:54:23;;;;;;;14.02;11.27;;;20.00;99.90;;;;;;5046185;28;20041;-73
2021/06/16 05:56:49;;;;;;;16.42;12.27;;;20.00;99.90;;;;;;5057872;28;20040;-78
2021/06/16 05:59:14;;;;;;;15.90;11.55;;;20.10;99.90;;;;;;5041726;28;20029;-78
2021/06/16 06:01:40;;;;;;;15.88;11.98;;;20.10;99.90;;;;;;5058460;28;20036;-78
2021/06/16 06:04:06;;;;;;;13.85;11.77;;;20.20;99.90;;;;;;5057849;28;20033;-78
2021/06/16 06:06:35;;;;;;;15.77;11.02;;;20.20;99.90;;;;;;5055263;28;20017;-78
2021/06/16 06:09:06;;;;;;;13.68;11.30;;;20.20;99.90;;;;;;5060169;28;20052;-73
2021/06/16 06:11:34;;;;;;;13.02;11.50;;;20.20;99.90;;;;;;5043132;28;20025;-72
2021/06/16 06:14:02;;;;;;;13.63;10.73;;;20.30;99.90;;;;;;5057440;28;20044;-72
2021/06/16 06:16:28;;;;;;;12.70;11.40;;;20.30;99.90;;;;;;5054642;28;20033;-77
2021/06/16 06:18:58;;;;;;;17.23;11.93;;;20.30;99.90;;;;;;5056526;28;20036;-78
2021/06/16 06:21:30;;;;;;;16.77;11.35;;;20.30;99.90;;;;;;5056906;28;20121;-78
2021/06/16 06:23:56;;;;;;;13.15;11.77;;;20.40;99.90;;;;;;5055998;28;20081;-78
2021/06/16 06:26:26;;;;;;;15.52;12.30;;;20.40;99.90;;;;;;5060430;28;20037;-78
2021/06/16 06:28:54;;;;;;;13.40;10.75;;;20.40;99.90;;;;;;5062218;28;21385;-73
2021/06/16 06:31:22;;;;;;;17.05;11.70;;;20.40;99.90;;;;;;5063011;28;20460;-72
2021/06/16 06:33:50;;;;;;;14.38;12.75;;;20.50;99.90;;;;;;5059294;28;20025;-72
2021/06/16 06:36:16;;;;;;;18.27;16.20;;;20.50;99.90;;;;;;5062614;28;20657;-78
2021/06/16 06:38:44;;;;;;;15.45;13.30;;;20.50;99.90;;;;;;5058912;28;20093;-78
2021/06/16 06:41:12;;;;;;;26.00;12.70;;;20.50;99.90;;;;;;5061586;28;20075;-77
2021/06/16 06:43:40;;;;;;;13.07;11.52;;;20.60;99.90;;;;;;5045553;28;20381;-78
2021/06/16 06:46:08;;;;;;;22.80;16.92;;;20.60;99.90;;;;;;5061294;28;20020;-77
2021/06/16 06:48:34;;;;;;;15.60;13.07;;;20.60;99.90;;;;;;5062226;28;20107;-78
2021/06/16 06:51:02;;;;;;;14.68;12.00;;;20.70;99.90;;;;;;5046425;28;20103;-77
2021/06/16 06:53:29;;;;;;;17.63;12.57;;;20.70;99.90;;;;;;5059479;28;20035;-78
2021/06/16 06:55:56;;;;;;;15.35;12.43;;;20.80;99.90;;;;;;5061027;28;20059;-78
2021/06/16 06:58:24;;;;;;;15.25;10.88;;;20.80;99.90;;;;;;5061169;28;20024;-78
2021/06/16 07:00:49;;;;;;;19.55;12.57;;;20.80;99.90;;;;;;5076799;28;20032;-78
2021/06/16 07:03:17;;;;;;;12.48;10.98;;;20.90;99.90;;;;;;5057836;28;20033;-78
2021/06/16 07:05:46;;;;;;;18.17;11.95;;;20.90;99.90;;;;;;5059533;28;20236;-78
2021/06/16 07:08:11;;;;;;;12.75;11.00;;;20.90;99.90;;;;;;5061842;28;20043;-78
2021/06/16 07:10:37;;;;;;;16.35;11.55;;;21.00;99.90;;;;;;5060271;28;20025;-77
2021/06/16 07:13:03;;;;;;;15.23;12.25;;;21.00;99.90;;;;;;5044024;28;20527;-77
2021/06/16 07:15:30;;;;;;;16.02;11.95;;;21.00;99.90;;;;;;5058783;28;20082;-78
2021/06/16 07:17:56;;;;;;;16.00;11.75;;;21.10;99.90;;;;;;5059933;28;20075;-77
2021/06/16 07:20:21;;;;;;;13.75;11.02;;;21.20;99.90;;;;;;5058965;28;20120;-77
2021/06/16 07:22:51;;;;;;;15.57;11.10;;;21.20;99.90;;;;;;5059206;28;20036;-78
2021/06/16 07:25:20;;;;;;;14.05;11.10;;;21.20;99.90;;;;;;5056185;28;20088;-77
2021/06/16 07:27:45;;;;;;;12.75;10.90;;;21.40;99.90;;;;;;5056633;28;20171;-77
2021/06/16 07:30:12;;;;;;;13.75;11.15;;;21.40;99.90;;;;;;5061756;28;20100;-77
2021/06/16 07:32:37;;;;;;;20.52;12.43;;;21.50;99.90;;;;;;5059064;28;20029;-78
2021/06/16 07:35:10;;;;;;;12.52;10.90;;;21.60;99.90;;;;;;5060297;28;20031;-78
2021/06/16 07:37:36;;;;;;;13.60;11.60;;;21.60;99.90;;;;;;5062769;28;20028;-78
2021/06/16 07:40:09;;;;;;;14.82;11.30;;;21.70;99.90;;;;;;5061322;28;20115;-78
2021/06/16 07:42:35;;;;;;;12.43;10.82;;;21.90;99.90;;;;;;5057915;28;20056;-78
2021/06/16 07:45:04;;;;;;;12.45;11.15;;;22.00;99.90;;;;;;5060277;28;20107;-77
2021/06/16 07:47:32;;;;;;;12.68;11.02;;;22.10;99.90;;;;;;5058864;28;20024;-78
2021/06/16 07:49:58;;;;;;;14.50;10.88;;;22.30;99.90;;;;;;5058310;28;20059;-79
2021/06/16 07:52:27;;;;;;;12.75;10.65;;;22.40;99.90;;;;;;5059208;28;20060;-78
2021/06/16 07:54:53;;;;;;;14.95;10.35;;;22.60;99.90;;;;;;5060693;28;20020;-78
2021/06/16 07:57:19;;;;;;;18.15;11.10;;;22.70;99.90;;;;;;5060890;28;20081;-78
2021/06/16 07:59:45;;;;;;;15.02;11.27;;;22.80;99.90;;;;;;5059519;28;20536;-78
2021/06/16 08:02:10;;;;;;;14.23;10.63;;;22.80;99.90;;;;;;5064671;28;20040;-78
2021/06/16 08:04:38;;;;;;;12.15;10.85;;;22.90;99.90;;;;;;5059772;28;20024;-78
2021/06/16 08:07:04;;;;;;;13.88;10.68;;;23.00;99.90;;;;;;5058530;28;20075;-77
2021/06/16 08:09:30;;;;;;;12.70;10.45;;;23.00;99.90;;;;;;5062154;28;20036;-78
2021/06/16 08:12:00;;;;;;;13.77;11.77;;;23.10;99.90;;;;;;5061304;28;20029;-78
2021/06/16 08:14:28;;;;;;;18.63;12.00;;;23.20;99.90;;;;;;5063027;28;20020;-78
2021/06/16 08:16:53;;;;;;;14.23;11.40;;;23.30;99.90;;;;;;5061963;28;21985;-78
2021/06/16 08:19:23;;;;;;;13.00;10.13;;;23.40;99.90;;;;;;5064157;28;20032;-77
2021/06/16 08:21:49;;;;;;;12.50;10.57;;;23.40;99.90;;;;;;5064940;28;20100;-78
2021/06/16 08:24:15;;;;;;;22.25;17.67;;;23.50;99.90;;;;;;5064315;28;20144;-78
2021/06/16 08:26:42;;;;;;;15.13;11.10;;;23.60;99.90;;;;;;5062948;28;20040;-78
2021/06/16 08:29:08;;;;;;;12.80;11.13;;;23.60;99.90;;;;;;5063203;28;20044;-78
2021/06/16 08:31:39;;;;;;;13.63;9.65;;;23.70;99.90;;;;;;5062953;28;20028;-78
2021/06/16 08:34:07;;;;;;;14.45;10.05;;;23.70;99.90;;;;;;5058620;28;20473;-79
2021/06/16 08:36:32;;;;;;;12.18;9.82;;;23.80;99.90;;;;;;5062894;28;20033;-78
2021/06/16 08:39:00;;;;;;;11.45;9.55;;;23.90;99.90;;;;;;5062955;28;20063;-78
2021/06/16 08:41:26;;;;;;;13.60;10.50;;;23.90;99.90;;;;;;5078600;28;20033;-78
2021/06/16 08:43:52;;;;;;;12.45;10.50;;;24.00;99.90;;;;;;5060600;28;20089;-77
2021/06/16 08:46:17;;;;;;;15.88;10.07;;;24.10;99.90;;;;;;5059729;28;20040;-79
2021/06/16 08:48:43;;;;;;;13.02;10.25;;;24.30;99.90;;;;;;5060652;28;20373;-73
2021/06/16 08:51:13;;;;;;;14.43;10.95;;;24.40;99.90;;;;;;5083376;28;20036;-78
2021/06/16 08:53:38;;;;;;;13.73;10.60;;;24.50;99.90;;;;;;5059733;28;20029;-78
2021/06/16 08:56:06;;;;;;;11.95;10.10;;;24.60;99.90;;;;;;5060741;28;20044;-77
2021/06/16 08:58:36;;;;;;;12.85;9.90;;;24.60;99.90;;;;;;5063012;28;20099;-78
2021/06/16 09:01:08;;;;;;;14.07;10.73;;;24.80;99.90;;;;;;5062388;28;20079;-78
2021/06/16 09:03:34;;;;;;;12.82;9.68;;;24.80;99.90;;;;;;5064396;28;20036;-78
2021/06/16 09:06:08;;;;;;;11.27;9.65;;;24.90;99.90;;;;;;5063469;28;20025;-78
2021/06/16 09:08:48;;;;;;;13.05;10.13;;;25.00;99.90;;;;;;5061066;28;20560;-78
2021/06/16 09:11:14;;;;;;;13.98;10.00;;;25.00;99.90;;;;;;5060935;28;20094;-80
2021/06/16 09:13:40;;;;;;;18.75;9.80;;;25.20;99.90;;;;;;5060331;28;20028;-79
2021/06/16 09:16:24;;;;;;;10.52;9.27;;;25.30;99.90;;;;;;5060187;28;20032;-78
2021/06/16 09:18:50;;;;;;;18.83;9.70;;;25.30;99.90;;;;;;5058722;28;20648;-80
2021/06/16 09:21:16;;;;;;;16.75;9.95;;;25.40;99.90;;;;;;5061177;28;20067;-80
2021/06/16 09:23:43;;;;;;;13.63;8.68;;;25.50;99.90;;;;;;5058572;28;20496;-78
2021/06/16 09:26:15;;;;;;;11.38;9.68;;;25.60;99.90;;;;;;5056687;28;20052;-78
2021/06/16 09:28:43;;;;;;;14.43;9.60;;;25.70;99.90;;;;;;5061813;28;20048;-78
2021/06/16 09:31:10;;;;;;;12.05;9.32;;;25.70;94.70;;;;;;5058871;28;20545;-77
2021/06/16 09:33:38;;;;;;;11.75;8.35;;;25.70;99.90;;;;;;5044791;28;20093;-77
2021/06/16 09:36:20;;;;;;;13.18;9.20;;;25.80;99.90;;;;;;5062795;28;20472;-76
2021/06/16 09:38:47;;;;;;;12.20;9.05;;;25.90;97.20;;;;;;5055552;28;20024;-77
2021/06/16 09:41:14;;;;;;;11.43;8.45;;;25.90;99.90;;;;;;5046677;28;20111;-77
2021/06/16 09:43:43;;;;;;;13.10;8.73;;;26.00;99.90;;;;;;5078305;28;20563;-77
2021/06/16 09:46:13;;;;;;;15.15;9.27;;;26.10;99.90;;;;;;5062192;28;20511;-78
2021/06/16 09:48:43;;;;;;;13.57;8.93;;;26.10;99.90;;;;;;5061994;28;20025;-77
2021/06/16 09:51:11;;;;;;;13.23;8.35;;;26.20;99.90;;;;;;5058205;28;20033;-77
2021/06/16 09:53:55;;;;;;;11.13;8.50;;;26.20;99.90;;;;;;5080929;28;20028;-77
2021/06/16 09:56:23;;;;;;;13.75;8.00;;;26.20;99.90;;;;;;5063489;28;20028;-77
2021/06/16 09:58:49;;;;;;;12.43;7.88;;;26.20;95.90;;;;;;5061183;28;20039;-77
2021/06/16 10:01:15;;;;;;;12.65;8.50;;;26.30;99.20;;;;;;5064518;28;20043;-77
2021/06/16 10:03:41;;;;;;;12.45;7.63;;;26.30;96.80;;;;;;5052362;28;20028;-77
2021/06/16 10:06:16;;;;;;;10.70;7.30;;;26.30;99.20;;;;;;5050575;28;20037;-77
2021/06/16 10:08:45;;;;;;;8.93;7.30;;;26.40;96.60;;;;;;5063250;28;20079;-76
2021/06/16 10:11:15;;;;;;;11.50;7.60;;;26.40;92.20;;;;;;5063892;28;20044;-77
2021/06/16 10:13:41;;;;;;;15.05;8.77;;;26.50;99.10;;;;;;5060898;28;20103;-78
2021/06/16 10:16:09;;;;;;;10.32;7.70;;;26.50;93.50;;;;;;5064506;28;20029;-77
2021/06/16 10:18:39;;;;;;;14.65;8.23;;;26.60;99.90;;;;;;5051036;28;20462;-78
2021/06/16 10:21:07;;;;;;;15.20;8.05;;;26.70;95.60;;;;;;5066472;28;20029;-78
2021/06/16 10:23:33;;;;;;;10.98;7.55;;;26.60;92.80;;;;;;5063654;28;20383;-76
2021/06/16 10:26:11;;;;;;;10.65;7.72;;;26.60;95.50;;;;;;5061605;28;20047;-76
2021/06/16 10:28:42;;;;;;;13.45;7.78;;;26.70;98.30;;;;;;5035943;28;20086;-76
2021/06/16 10:31:10;;;;;;;;;;;26.80;93.50;;;;;;5086601;28;20028;-77
2021/06/16 10:33:37;;;;;;;11.40;7.85;;;26.90;98.80;;;;;;5070326;28;20571;-76
2021/06/16 10:36:12;;;;;;;11.65;7.60;;;26.90;95.50;;;;;;5045275;28;20047;-77
2021/06/16 10:38:39;;;;;;;11.25;7.32;;;27.00;81.60;;;;;;5062766;28;20355;-77
2021/06/16 10:41:04;;;;;;;9.93;7.63;;;27.00;93.80;;;;;;5065806;28;20048;-77
2021/06/16 10:43:34;;;;;;;10.85;8.07;;;27.10;98.00;;;;;;5064356;28;20481;-76
2021/06/16 10:46:13;;;;;;;10.80;7.93;;;27.30;97.20;;;;;;5062149;28;20374;-77
2021/06/16 10:48:51;;;;;;;11.23;7.80;;;27.40;95.10;;;;;;5064100;28;20031;-77
2021/06/16 10:51:35;;;;;;;12.13;7.90;;;27.50;85.90;;;;;;5063883;28;20504;-76
2021/06/16 10:54:35;;;;;;;8.77;7.10;;;27.50;88.90;;;;;;5059821;28;20024;-76
2021/06/16 10:57:05;;;;;;;10.00;7.55;;;27.60;98.80;;;;;;5035040;28;20907;-76
2021/06/16 10:59:43;;;;;;;11.57;7.30;;;27.60;93.80;;;;;;5064805;28;20039;-76
2021/06/16 11:02:18;;;;;;;10.57;7.07;;;27.70;90.60;;;;;;5064265;28;20044;-76
2021/06/16 11:04:44;;;;;;;9.95;7.10;;;27.80;89.80;;;;;;5062038;28;20050;-76
2021/06/16 11:07:32;;;;;;;11.40;7.20;;;27.80;88.20;;;;;;5059523;28;20647;-77
2021/06/16 11:10:03;;;;;;;12.65;6.90;;;27.90;91.90;;;;;;5064951;28;20632;-75
2021/06/16 11:12:32;;;;;;;10.90;6.70;;;27.90;84.90;;;;;;5063206;28;20074;-77
2021/06/16 11:14:59;;;;;;;9.02;6.97;;;28.00;85.60;;;;;;5084448;28;20032;-77
2021/06/16 11:17:27;;;;;;;11.90;7.38;;;28.20;90.50;;;;;;5064823;28;20024;-76
2021/06/16 11:20:21;;;;;;;17.02;8.68;;;28.30;84.80;;;;;;5065154;28;20037;-77
2021/06/16 11:22:51;;;;;;;9.07;7.47;;;28.40;84.50;;;;;;5049763;28;20024;-77
2021/06/16 11:25:27;;;;;;;13.30;7.97;;;28.50;91.50;;;;;;5046758;28;20442;-76
2021/06/16 11:28:15;;;;;;;11.20;7.30;;;28.50;89.30;;;;;;5063886;28;20442;-72
2021/06/16 11:30:56;;;;;;;10.63;8.07;;;28.60;93.60;;;;;;5065154;28;20455;-77
2021/06/16 11:33:22;;;;;;;10.75;7.80;;;28.70;90.20;;;;;;5060951;28;20027;-76
2021/06/16 11:35:55;;;;;;;13.45;7.60;;;28.70;85.20;;;;;;5063897;28;20025;-76
2021/06/16 11:38:52;;;;;;;9.16;7.28;;;28.80;80.80;;;;;;5050131;28;10000459;-76
2021/06/16 11:41:20;;;;;;;11.60;7.57;;;28.90;90.70;;;;;;5063135;28;20235;-77
2021/06/16 11:43:50;;;;;;;13.30;7.80;;;29.00;91.30;;;;;;5059109;28;20032;-77
2021/06/16 11:46:29;;;;;;;10.43;7.88;;;29.10;92.30;;;;;;5057863;28;20044;-76
2021/06/16 11:49:27;;;;;;;10.63;7.80;;;29.20;90.30;;;;;;5061181;28;20024;-76
2021/06/16 11:51:54;;;;;;;16.15;8.20;;;29.20;88.20;;;;;;5078386;28;20028;-76
2021/06/16 11:54:35;;;;;;;11.77;8.13;;;29.40;86.70;;;;;;5057227;28;20451;-78
2021/06/16 11:57:10;;;;;;;10.05;7.38;;;29.50;82.70;;;;;;5059828;28;20068;-77
2021/06/16 11:59:44;;;;;;;10.73;7.28;;;29.50;80.40;;;;;;5061192;28;20032;-77
2021/06/16 12:02:11;;;;;;;11.68;7.80;;;29.60;87.80;;;;;;5046175;28;20024;-77
2021/06/16 12:04:48;;;;;;;10.43;8.07;;;29.70;86.50;;;;;;5059985;28;20029;-77
2021/06/16 12:07:55;;;;;;;13.73;8.23;;;29.70;85.40;;;;;;5044633;28;20029;-72
2021/06/16 12:10:25;;;;;;;14.32;9.00;;;29.90;81.80;;;;;;5058623;28;20029;-78
2021/06/16 12:13:01;;;;;;;10.70;7.95;;;29.90;76.80;;;;;;4727834;28;10000556;-76
2021/06/16 12:15:29;;;;;;;10.70;7.88;;;30.00;81.60;;;;;;5074037;28;20647;-76
2021/06/16 12:18:04;;;;;;;11.85;8.02;;;30.10;78.20;;;;;;5059235;28;20090;-77
2021/06/16 12:20:43;;;;;;;13.77;8.15;;;30.10;70.90;;;;;;5058587;28;20381;-77
2021/06/16 12:23:22;;;;;;;12.50;8.02;;;30.20;73.60;;;;;;5059215;28;20381;-76
2021/06/16 12:25:50;;;;;;;12.02;7.97;;;30.20;80.70;;;;;;5059034;28;20050;-77
2021/06/16 12:28:18;;;;;;;10.20;7.90;;;30.20;84.10;;;;;;5056839;28;20388;-76
2021/06/16 12:30:44;;;;;;;18.13;8.15;;;30.30;79.90;;;;;;5043908;28;20039;-76
2021/06/16 12:33:19;;;;;;;12.18;8.23;;;30.50;78.50;;;;;;5060258;28;20021;-78
2021/06/16 12:38:40;;;;;;;10.35;7.53;;;30.60;86.50;;;;;;5060987;28;20037;-76
2021/06/16 12:41:25;;;;;;;12.70;7.53;;;30.60;75.90;;;;;;5050792;28;20178;-76
2021/06/16 12:44:03;;;;;;;10.68;7.18;;;30.70;79.20;;;;;;5061913;28;20024;-76
2021/06/16 12:46:30;;;;;;;8.57;7.38;;;30.80;84.80;;;;;;5062447;28;20055;-77